Time;durP1;ratioP1;P1;durP2;ratioP2;P2;SDS_P1;SDS_P2;PMS_P1;PMS_P2;Temp;Humidity;BMP_temperature;BMP_pressure;BME280_temperature;BME280_humidity;BME280_pressure;Samples;Min_cycle;Max_cycle;Signal;HPM_P1;HPM_P2
2023/09/26 00:00:10;;;;;;;21.90;21.10;;;13.00;99.90;;;;;;5070443;28;20263;-64
2023/09/26 00:02:37;;;;;;;19.13;18.50;;;13.00;99.90;;;;;;5070510;28;20207;-65
2023/09/26 00:05:08;;;;;;;19.90;19.20;;;13.00;99.90;;;;;;5073864;28;20203;-65
2023/09/26 00:07:36;;;;;;;19.70;19.00;;;13.00;99.90;;;;;;5074116;28;20555;-65
2023/09/26 00:10:03;;;;;;;20.05;19.35;;;13.00;99.90;;;;;;5073531;28;20231;-66
2023/09/26 00:12:30;;;;;;;20.37;19.67;;;13.00;99.90;;;;;;5073519;28;20312;-66
2023/09/26 00:14:57;;;;;;;18.98;18.25;;;13.10;99.90;;;;;;5069659;28;20263;-66
2023/09/26 00:17:24;;;;;;;25.03;24.03;;;13.00;99.90;;;;;;5064244;28;20206;-66
2023/09/26 00:19:51;;;;;;;26.30;25.38;;;13.00;99.90;;;;;;5068715;28;20697;-64
2023/09/26 00:22:20;;;;;;;21.17;20.43;;;12.90;99.90;;;;;;5072380;28;20201;-66
2023/09/26 00:24:46;;;;;;;21.03;20.33;;;12.80;99.90;;;;;;5071584;28;20203;-64
2023/09/26 00:27:13;;;;;;;22.33;21.53;;;12.80;99.90;;;;;;5072904;28;20195;-64
2023/09/26 00:29:41;;;;;;;19.37;18.67;;;12.80;99.90;;;;;;5072963;28;20294;-66
2023/09/26 00:32:07;;;;;;;19.93;19.23;;;12.80;99.90;;;;;;5073062;28;20206;-66
2023/09/26 00:34:34;;;;;;;27.93;26.83;;;12.80;99.90;;;;;;5075230;28;20195;-66
2023/09/26 00:37:01;;;;;;;22.90;22.13;;;12.80;99.90;;;;;;5074695;28;20230;-65
2023/09/26 00:39:30;;;;;;;23.47;22.67;;;12.80;99.90;;;;;;5074824;28;20196;-64
2023/09/26 00:41:56;;;;;;;23.30;22.50;;;12.80;99.90;;;;;;5068344;28;20207;-64
2023/09/26 00:44:23;;;;;;;22.77;21.97;;;12.80;99.90;;;;;;5053293;28;20208;-64
2023/09/26 00:46:50;;;;;;;23.80;23.00;;;12.80;99.90;;;;;;5057034;28;20665;-64
2023/09/26 00:49:17;;;;;;;23.47;22.67;;;12.80;99.90;;;;;;5070369;28;20207;-66
2023/09/26 00:51:44;;;;;;;21.87;21.07;;;12.80;99.90;;;;;;5072095;28;20247;-65
2023/09/26 00:54:12;;;;;;;22.17;21.37;;;12.80;99.90;;;;;;5073227;28;20222;-66
2023/09/26 00:56:40;;;;;;;20.10;19.40;;;12.80;99.90;;;;;;5091899;28;20226;-65
2023/09/26 00:59:08;;;;;;;22.63;21.83;;;12.90;99.90;;;;;;5090594;28;20243;-66
2023/09/26 01:01:36;;;;;;;22.57;21.77;;;12.90;99.90;;;;;;5085699;28;20220;-66
2023/09/26 01:04:05;;;;;;;20.60;19.90;;;12.90;99.90;;;;;;5091036;28;20198;-66
2023/09/26 01:06:36;;;;;;;20.30;19.60;;;12.90;99.90;;;;;;5077355;28;20234;-65
2023/09/26 01:09:05;;;;;;;23.10;22.30;;;12.90;99.90;;;;;;5072741;28;20211;-65
2023/09/26 01:11:32;;;;;;;23.53;22.73;;;12.80;99.90;;;;;;5072546;28;20226;-65
2023/09/26 01:14:00;;;;;;;20.63;19.93;;;12.80;99.90;;;;;;5071710;28;20578;-65
2023/09/26 01:16:27;;;;;;;22.30;21.50;;;12.80;99.90;;;;;;5071692;28;20200;-64
2023/09/26 01:18:54;;;;;;;19.63;18.93;;;12.80;99.90;;;;;;5072723;28;20214;-64
2023/09/26 01:21:21;;;;;;;22.37;21.57;;;12.80;99.90;;;;;;5072510;28;20219;-64
2023/09/26 01:23:56;;;;;;;22.60;21.80;;;12.70;99.90;;;;;;5072307;28;20209;-64
2023/09/26 01:26:22;;;;;;;22.57;21.77;;;12.70;99.90;;;;;;5069752;28;20203;-65
2023/09/26 01:28:49;;;;;;;21.43;20.67;;;12.70;99.90;;;;;;5072379;28;20219;-64
2023/09/26 01:31:16;;;;;;;23.67;22.80;;;12.70;99.90;;;;;;5072396;28;20241;-65
2023/09/26 01:33:43;;;;;;;20.93;20.20;;;12.70;99.90;;;;;;5072315;28;20227;-65
2023/09/26 01:36:10;;;;;;;22.48;21.67;;;12.70;99.90;;;;;;5072044;28;20203;-64
2023/09/26 01:38:36;;;;;;;22.20;21.33;;;12.60;99.90;;;;;;5071175;28;20225;-65
2023/09/26 01:41:04;;;;;;;22.27;21.47;;;12.70;99.90;;;;;;5072122;28;20216;-64
2023/09/26 01:43:31;;;;;;;21.63;20.87;;;12.70;99.90;;;;;;5071943;28;20202;-65
2023/09/26 01:45:58;;;;;;;23.53;22.73;;;12.70;99.90;;;;;;5071806;28;20581;-65
2023/09/26 01:48:25;;;;;;;22.83;22.03;;;12.80;99.90;;;;;;5071954;28;20234;-66
2023/09/26 01:50:52;;;;;;;24.10;23.30;;;12.80;99.90;;;;;;5071658;28;20227;-64
2023/09/26 01:53:20;;;;;;;23.77;22.97;;;12.80;99.90;;;;;;5068874;28;20313;-65
2023/09/26 01:55:47;;;;;;;22.90;22.10;;;12.80;99.90;;;;;;5071497;28;20207;-65
2023/09/26 01:58:15;;;;;;;22.87;22.07;;;12.70;99.90;;;;;;5071439;28;20593;-65
2023/09/26 02:00:42;;;;;;;22.20;21.42;;;12.70;99.90;;;;;;5071572;28;20215;-64
2023/09/26 02:03:09;;;;;;;21.40;20.63;;;12.70;99.90;;;;;;5069841;28;20210;-65
2023/09/26 02:05:35;;;;;;;23.67;22.87;;;12.70;99.90;;;;;;5071200;28;20208;-64
2023/09/26 02:08:02;;;;;;;24.00;23.20;;;12.60;99.90;;;;;;5071459;28;20600;-65
2023/09/26 02:10:29;;;;;;;22.90;22.02;;;12.60;99.90;;;;;;5071309;28;20226;-64
2023/09/26 02:12:56;;;;;;;24.17;23.37;;;12.70;99.90;;;;;;5071209;28;20219;-66
2023/09/26 02:15:24;;;;;;;24.40;23.53;;;12.60;99.90;;;;;;5070997;28;20195;-65
2023/09/26 02:17:51;;;;;;;24.30;23.50;;;12.60;99.90;;;;;;5071164;28;20209;-65
2023/09/26 02:20:19;;;;;;;24.30;23.50;;;12.70;99.90;;;;;;5071168;28;20594;-66
2023/09/26 02:22:48;;;;;;;21.33;20.63;;;12.60;99.90;;;;;;5069221;28;20204;-65
2023/09/26 02:25:16;;;;;;;23.27;22.47;;;12.60;99.90;;;;;;5070442;28;20207;-65
2023/09/26 02:27:44;;;;;;;23.60;22.80;;;12.60;99.90;;;;;;5070755;28;20195;-64
2023/09/26 02:30:12;;;;;;;23.90;23.07;;;12.60;99.90;;;;;;5070673;28;20215;-65
2023/09/26 02:32:41;;;;;;;23.80;22.97;;;12.60;99.90;;;;;;5070573;28;20219;-65
2023/09/26 02:35:10;;;;;;;20.23;19.52;;;12.60;99.90;;;;;;5069118;28;20666;-65
2023/09/26 02:37:38;;;;;;;21.87;21.17;;;12.50;99.90;;;;;;5070941;28;20282;-64
2023/09/26 02:40:09;;;;;;;21.93;21.13;;;12.50;99.90;;;;;;5070751;28;20234;-66
2023/09/26 02:42:36;;;;;;;19.73;19.03;;;12.40;99.90;;;;;;5070779;28;20203;-66
2023/09/26 02:45:03;;;;;;;20.80;20.10;;;12.30;99.90;;;;;;5070814;28;20203;-64
2023/09/26 02:47:30;;;;;;;20.10;19.40;;;12.30;99.90;;;;;;5070292;28;20213;-65
2023/09/26 02:49:58;;;;;;;18.27;17.67;;;12.30;99.90;;;;;;5070453;28;20758;-65
2023/09/26 02:52:26;;;;;;;17.70;17.10;;;12.20;99.90;;;;;;5068796;28;20209;-65
2023/09/26 02:54:53;;;;;;;20.20;19.50;;;12.20;99.90;;;;;;5070564;28;20222;-66
2023/09/26 02:57:20;;;;;;;19.60;18.90;;;12.10;99.90;;;;;;5070169;28;20205;-65
2023/09/26 02:59:48;;;;;;;19.90;19.20;;;12.20;99.90;;;;;;5070258;28;20210;-65
2023/09/26 03:02:15;;;;;;;19.90;19.20;;;12.20;99.90;;;;;;5070612;28;20278;-66
2023/09/26 03:04:42;;;;;;;19.33;18.63;;;12.10;99.90;;;;;;5070249;28;20729;-66
2023/09/26 03:07:10;;;;;;;22.43;21.53;;;12.20;99.90;;;;;;5068255;28;20661;-65
2023/09/26 03:09:37;;;;;;;18.57;17.90;;;12.20;99.90;;;;;;5070219;28;20227;-65
2023/09/26 03:12:06;;;;;;;19.50;18.80;;;12.20;99.90;;;;;;5070075;28;20206;-65
2023/09/26 03:14:33;;;;;;;20.20;19.43;;;12.20;99.90;;;;;;5070324;28;20314;-66
2023/09/26 03:17:00;;;;;;;24.07;23.17;;;12.30;99.90;;;;;;5070287;28;20199;-65
2023/09/26 03:19:27;;;;;;;23.53;22.73;;;12.30;99.90;;;;;;5070487;28;20203;-65
2023/09/26 03:21:53;;;;;;;22.83;22.03;;;12.30;99.90;;;;;;5070168;28;20222;-66
2023/09/26 03:24:22;;;;;;;20.10;19.40;;;12.20;99.90;;;;;;5070004;28;20192;-64
2023/09/26 03:26:48;;;;;;;20.63;19.93;;;12.30;99.90;;;;;;5070359;28;20203;-64
2023/09/26 03:29:15;;;;;;;19.53;18.83;;;12.10;99.90;;;;;;5070766;28;20210;-64
2023/09/26 03:31:43;;;;;;;19.97;19.27;;;12.10;99.90;;;;;;5070119;28;20314;-64
2023/09/26 03:34:10;;;;;;;23.47;22.67;;;12.10;99.90;;;;;;5066426;28;20667;-65
2023/09/26 03:36:37;;;;;;;24.47;23.53;;;12.00;99.90;;;;;;5069615;28;20203;-64
2023/09/26 03:39:05;;;;;;;23.50;22.70;;;12.00;99.90;;;;;;5069424;28;20207;-65
2023/09/26 03:41:33;;;;;;;26.63;25.73;;;12.00;99.90;;;;;;5070112;28;20750;-66
2023/09/26 03:44:00;;;;;;;26.07;25.17;;;12.10;99.90;;;;;;5070708;28;20203;-66
2023/09/26 03:46:27;;;;;;;26.10;25.17;;;12.10;99.90;;;;;;5070493;28;20213;-65
2023/09/26 03:48:54;;;;;;;24.20;23.40;;;12.10;99.90;;;;;;5070494;28;20209;-65
2023/09/26 03:51:21;;;;;;;26.47;25.53;;;12.00;99.90;;;;;;5070037;28;20318;-65
2023/09/26 03:53:48;;;;;;;29.80;28.73;;;12.00;99.90;;;;;;5070401;28;20233;-65
2023/09/26 03:56:15;;;;;;;28.57;27.57;;;12.00;99.90;;;;;;5072823;28;20215;-65
2023/09/26 03:58:43;;;;;;;26.00;25.10;;;12.00;99.90;;;;;;5074383;28;20219;-65
2023/09/26 04:01:11;;;;;;;29.60;28.57;;;12.10;99.90;;;;;;5079137;28;20237;-65
2023/09/26 04:03:39;;;;;;;24.70;23.83;;;12.10;99.90;;;;;;5073794;28;20229;-65
2023/09/26 04:06:07;;;;;;;27.37;26.40;;;12.10;99.90;;;;;;5071226;28;20290;-65
2023/09/26 04:08:34;;;;;;;27.67;26.70;;;12.10;99.90;;;;;;5069502;28;20204;-66
2023/09/26 04:11:01;;;;;;;26.57;25.60;;;12.10;99.90;;;;;;5071235;28;20254;-65
2023/09/26 04:13:28;;;;;;;29.70;28.70;;;12.10;99.90;;;;;;5071933;28;20238;-65
2023/09/26 04:15:57;;;;;;;31.70;30.52;;;12.10;99.90;;;;;;5071592;28;20294;-65
2023/09/26 04:18:23;;;;;;;25.85;24.95;;;12.20;99.90;;;;;;5072112;28;20732;-65
2023/09/26 04:20:51;;;;;;;27.83;26.83;;;12.20;99.90;;;;;;5070568;28;20238;-64
2023/09/26 04:23:18;;;;;;;25.43;24.53;;;12.20;99.90;;;;;;5068340;28;20218;-65
2023/09/26 04:25:44;;;;;;;29.57;28.57;;;12.10;99.90;;;;;;5071201;28;20229;-65
2023/09/26 04:28:12;;;;;;;26.70;25.80;;;12.10;99.90;;;;;;5070931;28;20211;-66
2023/09/26 04:30:39;;;;;;;24.43;23.57;;;12.00;99.90;;;;;;5071930;28;20991;-65
2023/09/26 04:33:08;;;;;;;26.30;25.40;;;12.00;99.90;;;;;;5071423;28;20269;-64
2023/09/26 04:35:35;;;;;;;25.07;24.20;;;12.00;99.90;;;;;;5075585;28;20257;-65
2023/09/26 04:38:03;;;;;;;29.57;28.50;;;12.00;99.90;;;;;;5075441;28;20211;-65
2023/09/26 04:40:30;;;;;;;29.92;28.85;;;11.90;99.90;;;;;;5076194;28;20231;-66
2023/09/26 04:43:00;;;;;;;29.33;28.33;;;11.80;99.90;;;;;;5077502;28;20234;-66
2023/09/26 04:45:30;;;;;;;25.27;24.37;;;11.80;99.90;;;;;;5077980;28;20263;-66
2023/09/26 04:47:58;;;;;;;24.33;23.50;;;11.90;99.90;;;;;;5083110;28;20207;-66
2023/09/26 04:50:27;;;;;;;19.40;18.73;;;11.80;99.90;;;;;;5083222;28;20330;-66
2023/09/26 04:52:54;;;;;;;17.63;17.03;;;11.80;99.90;;;;;;5082652;28;20218;-67
2023/09/26 04:55:22;;;;;;;23.00;22.20;;;11.80;99.90;;;;;;5082479;28;20290;-66
2023/09/26 04:57:49;;;;;;;19.90;19.20;;;11.60;99.90;;;;;;5077738;28;20215;-65
2023/09/26 05:00:18;;;;;;;17.13;16.53;;;11.60;99.90;;;;;;5079000;28;20310;-65
2023/09/26 05:02:45;;;;;;;18.53;17.93;;;11.50;99.90;;;;;;5076458;28;20218;-65
2023/09/26 05:05:14;;;;;;;18.00;17.40;;;11.50;99.90;;;;;;5075842;28;20210;-63
2023/09/26 05:07:44;;;;;;;16.80;16.20;;;11.40;99.90;;;;;;5074384;28;20298;-65
2023/09/26 05:10:12;;;;;;;17.17;16.57;;;11.40;99.90;;;;;;5073699;28;20310;-64
2023/09/26 05:12:40;;;;;;;17.03;16.43;;;11.40;99.90;;;;;;5068114;28;20208;-66
2023/09/26 05:15:12;;;;;;;19.23;18.53;;;11.40;99.90;;;;;;5070196;28;20236;-64
2023/09/26 05:17:41;;;;;;;16.37;15.77;;;11.30;99.90;;;;;;5064685;28;20211;-67
2023/09/26 05:20:10;;;;;;;17.93;17.33;;;11.30;99.90;;;;;;5073339;28;20246;-66
2023/09/26 05:22:37;;;;;;;16.83;16.23;;;11.30;99.90;;;;;;5073024;28;20293;-65
2023/09/26 05:25:07;;;;;;;16.70;16.10;;;11.30;99.90;;;;;;5069923;28;20200;-65
2023/09/26 05:27:34;;;;;;;16.60;16.00;;;11.30;99.90;;;;;;5065861;28;20286;-64
2023/09/26 05:30:01;;;;;;;17.05;16.45;;;11.30;99.90;;;;;;5058387;28;20228;-65
2023/09/26 05:32:28;;;;;;;16.43;15.83;;;11.20;99.90;;;;;;5075012;28;20290;-65
2023/09/26 05:34:55;;;;;;;16.17;15.57;;;11.30;99.90;;;;;;5078049;28;20266;-65
2023/09/26 05:37:22;;;;;;;14.83;14.33;;;11.30;99.90;;;;;;5075842;28;20306;-65
2023/09/26 05:39:49;;;;;;;18.03;17.43;;;11.30;99.90;;;;;;5073956;28;20230;-65
2023/09/26 05:42:17;;;;;;;15.00;14.50;;;11.30;99.90;;;;;;5069460;28;20214;-65
2023/09/26 05:44:44;;;;;;;15.50;14.97;;;11.30;99.90;;;;;;5059827;28;20231;-64
2023/09/26 05:47:11;;;;;;;18.17;17.57;;;11.30;99.90;;;;;;5065342;28;20218;-64
2023/09/26 05:49:37;;;;;;;14.30;13.80;;;11.30;99.90;;;;;;5072807;28;20302;-64
2023/09/26 05:52:05;;;;;;;16.27;15.67;;;11.40;99.90;;;;;;5072196;28;20217;-64
2023/09/26 05:54:33;;;;;;;13.83;13.33;;;11.30;99.90;;;;;;5071606;28;20222;-64
2023/09/26 05:57:02;;;;;;;14.27;13.77;;;11.40;99.90;;;;;;5072082;28;20238;-64
2023/09/26 05:59:31;;;;;;;13.87;13.37;;;11.50;99.90;;;;;;5071526;28;20268;-63
2023/09/26 06:01:58;;;;;;;13.60;13.10;;;11.60;99.90;;;;;;5066061;28;20705;-65
2023/09/26 06:04:25;;;;;;;13.37;12.87;;;11.60;99.90;;;;;;5069696;28;20195;-64
2023/09/26 06:06:52;;;;;;;13.53;13.03;;;11.70;99.90;;;;;;5069054;28;20631;-65
2023/09/26 06:09:18;;;;;;;14.20;13.63;;;11.80;99.90;;;;;;5071461;28;20215;-65
2023/09/26 06:11:45;;;;;;;15.23;14.73;;;11.80;99.90;;;;;;5068349;28;20229;-65
2023/09/26 06:14:12;;;;;;;17.50;16.90;;;11.80;99.90;;;;;;5063203;28;20224;-65
2023/09/26 06:16:40;;;;;;;15.67;15.17;;;11.90;99.90;;;;;;5067125;28;20207;-65
2023/09/26 06:19:07;;;;;;;16.70;16.10;;;11.90;99.90;;;;;;5070596;28;20203;-64
2023/09/26 06:21:34;;;;;;;16.83;16.23;;;12.00;99.90;;;;;;5066643;28;20258;-65
2023/09/26 06:24:01;;;;;;;16.70;16.10;;;12.10;99.90;;;;;;5071200;28;20294;-66
2023/09/26 06:26:27;;;;;;;16.63;16.03;;;12.10;99.90;;;;;;5067079;28;20213;-64
2023/09/26 06:28:54;;;;;;;17.83;17.23;;;12.20;99.90;;;;;;5063995;28;20211;-66
2023/09/26 06:31:21;;;;;;;17.30;16.70;;;12.30;99.90;;;;;;5069864;28;20709;-64
2023/09/26 06:33:49;;;;;;;18.50;17.90;;;12.40;99.90;;;;;;5071478;28;20299;-66
2023/09/26 06:36:18;;;;;;;18.13;17.53;;;12.40;99.90;;;;;;5070515;28;20229;-64
2023/09/26 06:38:45;;;;;;;17.83;17.23;;;12.50;99.90;;;;;;5070553;28;20688;-65
2023/09/26 06:41:11;;;;;;;19.02;18.38;;;12.60;99.90;;;;;;5068055;28;20262;-64
2023/09/26 06:43:38;;;;;;;17.83;17.13;;;12.60;99.90;;;;;;5070587;28;20555;-65
2023/09/26 06:46:06;;;;;;;15.77;15.27;;;12.70;99.90;;;;;;5068123;28;20230;-65
2023/09/26 06:48:35;;;;;;;16.87;16.27;;;12.70;99.90;;;;;;5071734;28;20260;-66
2023/09/26 06:51:03;;;;;;;16.90;16.30;;;12.80;99.90;;;;;;5071865;28;20231;-65
2023/09/26 06:53:31;;;;;;;17.30;16.70;;;12.90;99.90;;;;;;5070257;28;20229;-65
2023/09/26 06:56:02;;;;;;;20.33;19.63;;;13.00;99.90;;;;;;5070661;28;20227;-65
2023/09/26 06:58:29;;;;;;;18.07;17.47;;;13.10;99.90;;;;;;5031708;28;1139268;-65
2023/09/26 07:00:56;;;;;;;17.52;16.92;;;13.20;99.90;;;;;;5071031;28;20219;-64
2023/09/26 07:03:23;;;;;;;18.23;17.63;;;13.30;99.90;;;;;;5070216;28;20210;-63
2023/09/26 07:05:50;;;;;;;17.30;16.70;;;13.50;99.90;;;;;;5051056;28;20282;-64
2023/09/26 07:08:18;;;;;;;17.90;17.30;;;13.50;99.90;;;;;;5051445;28;20231;-64
2023/09/26 07:10:45;;;;;;;18.00;17.40;;;13.70;99.90;;;;;;5050668;28;20231;-65
2023/09/26 07:13:13;;;;;;;18.17;17.58;;;13.70;99.90;;;;;;5050085;28;20204;-64
2023/09/26 07:15:41;;;;;;;17.90;17.30;;;13.80;99.90;;;;;;5049946;28;20274;-65
2023/09/26 07:18:09;;;;;;;18.87;18.27;;;14.00;99.90;;;;;;5054452;28;20272;-64
2023/09/26 07:20:38;;;;;;;18.63;18.03;;;14.00;99.90;;;;;;5066046;28;20273;-64
2023/09/26 07:23:05;;;;;;;17.92;17.33;;;14.20;99.90;;;;;;5070896;28;20498;-65
2023/09/26 07:25:33;;;;;;;19.23;18.57;;;14.20;99.90;;;;;;5071215;28;20211;-64
2023/09/26 07:28:00;;;;;;;22.50;21.70;;;14.40;99.90;;;;;;5067179;28;20207;-65
2023/09/26 07:30:27;;;;;;;21.73;20.93;;;14.30;99.90;;;;;;5070436;28;20234;-65
2023/09/26 07:32:54;;;;;;;20.10;19.37;;;14.30;99.90;;;;;;5071136;28;20314;-65
2023/09/26 07:35:21;;;;;;;19.07;18.37;;;14.40;99.90;;;;;;5070464;28;20237;-65
2023/09/26 07:37:48;;;;;;;21.17;20.43;;;14.50;99.90;;;;;;5071228;28;20295;-65
2023/09/26 07:40:15;;;;;;;21.97;21.17;;;14.60;99.90;;;;;;5071542;28;20231;-64
2023/09/26 07:42:43;;;;;;;17.73;17.13;;;14.70;99.90;;;;;;5070182;28;20226;-65
2023/09/26 07:45:11;;;;;;;16.07;15.50;;;14.80;99.90;;;;;;5071173;28;20574;-65
2023/09/26 07:47:37;;;;;;;15.27;14.70;;;14.90;99.90;;;;;;5055732;28;20218;-65
2023/09/26 07:50:05;;;;;;;15.25;14.73;;;15.10;99.90;;;;;;5066489;28;20234;-65
2023/09/26 07:52:32;;;;;;;14.00;13.50;;;15.20;99.90;;;;;;5070628;28;20302;-65
2023/09/26 07:54:59;;;;;;;13.57;13.07;;;15.20;99.90;;;;;;5070626;28;20233;-64
2023/09/26 07:57:26;;;;;;;13.57;13.07;;;15.30;99.90;;;;;;5070081;28;20207;-64
2023/09/26 07:59:55;;;;;;;13.20;12.80;;;15.50;99.90;;;;;;5070594;28;20596;-64
2023/09/26 08:02:21;;;;;;;14.23;13.73;;;15.70;99.90;;;;;;5070645;28;20306;-64
2023/09/26 08:04:48;;;;;;;14.00;13.50;;;16.10;99.90;;;;;;5070682;28;20200;-66
2023/09/26 08:07:15;;;;;;;13.50;13.00;;;16.10;99.90;;;;;;5070420;28;20269;-65
2023/09/26 08:09:42;;;;;;;14.23;13.57;;;16.30;99.90;;;;;;5070330;28;20207;-65
2023/09/26 08:12:09;;;;;;;13.60;13.10;;;16.40;99.90;;;;;;5070943;28;20211;-66
2023/09/26 08:14:36;;;;;;;14.80;14.30;;;16.50;99.90;;;;;;5070385;28;20207;-65
2023/09/26 08:17:04;;;;;;;12.70;12.30;;;16.40;99.90;;;;;;5066535;28;20365;-65
2023/09/26 08:19:31;;;;;;;14.07;13.57;;;16.40;99.90;;;;;;5070131;28;20314;-64
2023/09/26 08:21:58;;;;;;;14.00;13.50;;;16.60;99.90;;;;;;5070802;28;20235;-64
2023/09/26 08:24:25;;;;;;;15.30;14.80;;;16.80;99.90;;;;;;5073293;28;20709;-64
2023/09/26 08:26:50;;;;;;;14.00;13.50;;;17.00;99.90;;;;;;5070186;28;20578;-64
2023/09/26 08:29:17;;;;;;;14.23;13.73;;;17.00;99.90;;;;;;5073962;28;20338;-64
2023/09/26 08:31:44;;;;;;;14.70;14.10;;;17.10;99.90;;;;;;5073783;28;20265;-65
2023/09/26 08:34:12;;;;;;;14.17;13.67;;;17.40;99.90;;;;;;5073602;28;20239;-65
2023/09/26 08:36:39;;;;;;;14.57;14.07;;;17.50;99.90;;;;;;5072440;28;20262;-64
2023/09/26 08:39:06;;;;;;;15.20;14.60;;;17.60;99.90;;;;;;5073532;28;20265;-65
2023/09/26 08:41:34;;;;;;;15.32;14.82;;;17.80;99.90;;;;;;5073345;28;20321;-64
2023/09/26 08:44:01;;;;;;;14.23;13.73;;;18.00;99.90;;;;;;5074011;28;20226;-65
2023/09/26 08:46:28;;;;;;;14.60;14.10;;;18.10;99.90;;;;;;5073675;28;20206;-65
2023/09/26 08:48:56;;;;;;;15.27;14.70;;;18.20;99.90;;;;;;5074009;28;20211;-65
2023/09/26 08:51:25;;;;;;;17.33;16.73;;;18.30;99.90;;;;;;5073252;28;20235;-65
2023/09/26 08:53:52;;;;;;;14.80;14.30;;;18.40;99.90;;;;;;5073484;28;20239;-65
2023/09/26 08:56:21;;;;;;;17.83;17.23;;;18.50;99.90;;;;;;5072621;28;20223;-65
2023/09/26 08:58:50;;;;;;;16.20;15.63;;;18.60;99.90;;;;;;5064526;28;20287;-66
2023/09/26 09:01:18;;;;;;;17.43;16.83;;;18.50;99.90;;;;;;5076343;28;20219;-65
2023/09/26 09:03:44;;;;;;;19.13;18.42;;;18.60;99.90;;;;;;5074895;28;20222;-64
2023/09/26 09:06:11;;;;;;;19.83;19.03;;;18.70;99.90;;;;;;5068794;28;20282;-65
2023/09/26 09:08:40;;;;;;;15.02;14.52;;;18.80;99.90;;;;;;5064124;28;20204;-65
2023/09/26 09:11:06;;;;;;;15.57;15.03;;;18.90;99.90;;;;;;5072463;28;20233;-65
2023/09/26 09:13:35;;;;;;;17.27;16.67;;;19.10;99.90;;;;;;5069293;28;20330;-65
2023/09/26 09:16:13;;;;;;;14.35;13.85;;;19.10;99.90;;;;;;5068551;28;20230;-64
2023/09/26 09:18:42;;;;;;;16.20;15.65;;;19.20;99.90;;;;;;5065821;28;20548;-67
2023/09/26 09:21:24;;;;;;;14.70;14.20;;;19.30;99.90;;;;;;5067982;28;20219;-66
2023/09/26 09:23:53;;;;;;;15.07;14.47;;;19.40;99.90;;;;;;5068215;28;20218;-66
2023/09/26 09:26:20;;;;;;;16.23;15.63;;;19.40;99.90;;;;;;5062108;28;20204;-65
2023/09/26 09:28:48;;;;;;;15.77;15.25;;;19.40;99.90;;;;;;5068188;28;20210;-66
2023/09/26 09:31:16;;;;;;;15.55;15.00;;;19.50;99.90;;;;;;5067911;28;20219;-66
2023/09/26 09:33:47;;;;;;;15.17;14.67;;;19.60;99.90;;;;;;5071149;28;20211;-67
2023/09/26 09:36:14;;;;;;;14.57;13.97;;;19.70;99.90;;;;;;5071163;28;20590;-64
2023/09/26 09:38:41;;;;;;;15.10;14.60;;;19.80;99.90;;;;;;5070050;28;20204;-64
2023/09/26 09:41:10;;;;;;;14.95;14.45;;;19.90;99.90;;;;;;5067941;28;20231;-64
2023/09/26 09:43:37;;;;;;;14.65;14.15;;;19.90;99.90;;;;;;5068491;28;20203;-65
2023/09/26 09:46:08;;;;;;;15.32;14.82;;;20.00;99.90;;;;;;5068364;28;20211;-53
2023/09/26 09:48:42;;;;;;;15.32;14.77;;;20.10;99.90;;;;;;5073830;28;20290;-64
2023/09/26 09:51:12;;;;;;;14.90;14.40;;;20.30;99.90;;;;;;5080581;28;20568;-65
2023/09/26 09:53:42;;;;;;;15.37;14.87;;;20.40;99.90;;;;;;5084545;28;20206;-64
2023/09/26 09:56:12;;;;;;;16.48;15.88;;;20.40;99.90;;;;;;5082675;28;20230;-64
2023/09/26 09:58:42;;;;;;;17.40;16.80;;;20.40;99.90;;;;;;5075137;28;20310;-65
2023/09/26 10:01:13;;;;;;;15.17;14.67;;;20.30;99.90;;;;;;5079170;28;20212;-64
2023/09/26 10:03:41;;;;;;;16.60;15.90;;;20.50;99.90;;;;;;5068833;28;20269;-64
2023/09/26 10:06:08;;;;;;;15.20;14.60;;;20.60;99.90;;;;;;5072559;28;20203;-64
2023/09/26 10:08:37;;;;;;;15.57;15.07;;;20.70;99.90;;;;;;5072318;28;20204;-64
2023/09/26 10:11:05;;;;;;;14.95;14.45;;;20.90;99.90;;;;;;5072621;28;20730;-64
2023/09/26 10:13:34;;;;;;;15.55;15.05;;;21.10;99.90;;;;;;5066427;28;20207;-64
2023/09/26 10:16:11;;;;;;;15.55;15.05;;;21.20;99.90;;;;;;5067475;28;20314;-64
2023/09/26 10:18:39;;;;;;;15.90;15.35;;;21.00;99.90;;;;;;5065951;28;20195;-63
2023/09/26 10:21:30;;;;;;;16.70;16.10;;;21.10;99.90;;;;;;5066129;28;20223;-63
2023/09/26 10:24:22;;;;;;;16.55;15.95;;;21.30;99.90;;;;;;5064733;28;20218;-65
2023/09/26 10:26:51;;;;;;;16.33;15.73;;;21.40;99.90;;;;;;5065832;28;20319;-65
2023/09/26 10:29:23;;;;;;;16.43;15.83;;;21.50;99.90;;;;;;5061971;28;20208;-65
2023/09/26 10:31:53;;;;;;;16.75;16.15;;;21.40;99.90;;;;;;5058105;28;20226;-65
2023/09/26 10:34:22;;;;;;;15.73;15.18;;;21.30;99.90;;;;;;5068042;28;20374;-64
2023/09/26 10:36:49;;;;;;;16.60;16.00;;;21.40;99.90;;;;;;5069463;28;20230;-67
2023/09/26 10:39:16;;;;;;;15.15;14.65;;;21.70;99.90;;;;;;5075522;28;20199;-65
2023/09/26 10:41:43;;;;;;;15.82;15.32;;;21.90;99.90;;;;;;5083018;28;20231;-65
2023/09/26 10:44:10;;;;;;;16.90;16.30;;;21.90;99.90;;;;;;5072500;28;20249;-65
2023/09/26 10:46:38;;;;;;;16.10;15.52;;;22.00;99.90;;;;;;5072423;28;20207;-64
2023/09/26 10:49:05;;;;;;;15.57;15.07;;;22.00;99.90;;;;;;5067734;28;21292;-65
2023/09/26 10:51:32;;;;;;;16.63;16.02;;;22.00;99.90;;;;;;5063584;28;20225;-65
2023/09/26 10:53:58;;;;;;;15.73;15.00;;;22.00;99.90;;;;;;5066386;28;20603;-64
2023/09/26 10:56:25;;;;;;;17.45;16.85;;;21.90;99.90;;;;;;5065709;28;20307;-64
2023/09/26 10:58:54;;;;;;;15.70;15.20;;;22.00;99.90;;;;;;5064068;28;20210;-64
2023/09/26 11:01:21;;;;;;;14.90;14.40;;;22.10;99.90;;;;;;5067236;28;20227;-64
2023/09/26 11:03:49;;;;;;;15.70;15.10;;;22.30;99.90;;;;;;5064894;28;20270;-65
2023/09/26 11:06:16;;;;;;;16.60;16.00;;;22.20;99.90;;;;;;5065681;28;20199;-63
2023/09/26 11:08:43;;;;;;;17.03;16.43;;;22.30;99.90;;;;;;5062676;28;20216;-64
2023/09/26 11:11:12;;;;;;;17.10;16.50;;;22.20;99.90;;;;;;5065252;28;20731;-63
2023/09/26 11:13:39;;;;;;;16.60;16.00;;;22.20;99.90;;;;;;5066915;28;20202;-64
2023/09/26 11:16:07;;;;;;;16.30;15.70;;;22.20;99.90;;;;;;5064360;28;20270;-65
2023/09/26 11:18:34;;;;;;;17.50;16.90;;;22.30;99.90;;;;;;5065237;28;20203;-64
2023/09/26 11:21:04;;;;;;;16.73;16.13;;;22.20;99.90;;;;;;5060945;28;20605;-65
2023/09/26 11:23:39;;;;;;;16.08;15.48;;;22.20;99.90;;;;;;5059799;28;20235;-65
2023/09/26 11:26:07;;;;;;;16.40;15.80;;;22.30;99.90;;;;;;5065785;28;20203;-65
2023/09/26 11:28:35;;;;;;;19.42;18.73;;;22.20;99.90;;;;;;5067839;28;20204;-65
2023/09/26 11:31:02;;;;;;;18.92;18.23;;;22.30;99.90;;;;;;5062247;28;20785;-65
2023/09/26 11:33:29;;;;;;;17.42;16.83;;;22.50;99.90;;;;;;5067213;28;20677;-64
2023/09/26 11:35:56;;;;;;;17.60;17.00;;;22.80;99.90;;;;;;5064154;28;20767;-63
2023/09/26 11:38:25;;;;;;;17.05;16.45;;;23.10;99.90;;;;;;5060395;28;20211;-64
2023/09/26 11:40:54;;;;;;;16.77;16.07;;;23.20;99.90;;;;;;5057729;28;20333;-64
2023/09/26 11:43:21;;;;;;;16.25;15.65;;;23.20;99.90;;;;;;5068233;28;20239;-65
2023/09/26 11:45:48;;;;;;;15.60;15.02;;;23.20;99.90;;;;;;5064369;28;20203;-64
2023/09/26 11:48:15;;;;;;;18.33;17.73;;;23.10;99.90;;;;;;5064627;28;20200;-64
2023/09/26 11:50:42;;;;;;;17.23;16.52;;;23.10;99.90;;;;;;5061105;28;20242;-66
2023/09/26 11:53:13;;;;;;;17.92;17.33;;;22.90;99.90;;;;;;5059307;28;20207;-65
2023/09/26 11:55:46;;;;;;;17.30;16.70;;;22.80;99.90;;;;;;5055675;28;20204;-65
2023/09/26 11:58:13;;;;;;;17.25;16.55;;;22.90;99.90;;;;;;5051168;28;20239;-63
2023/09/26 12:00:40;;;;;;;16.65;16.00;;;23.10;99.90;;;;;;5066780;28;20241;-64
2023/09/26 12:03:07;;;;;;;18.17;17.58;;;23.20;99.90;;;;;;5071691;28;20721;-65
2023/09/26 12:05:35;;;;;;;16.15;15.57;;;23.30;99.90;;;;;;5067402;28;20217;-64
2023/09/26 12:08:02;;;;;;;15.07;14.57;;;23.30;99.90;;;;;;5066060;28;20207;-64
2023/09/26 12:10:28;;;;;;;17.60;17.00;;;23.40;99.90;;;;;;5065668;28;20269;-64
2023/09/26 12:12:57;;;;;;;16.02;15.43;;;23.30;99.90;;;;;;5066383;28;20256;-64
2023/09/26 12:15:24;;;;;;;16.85;16.25;;;23.20;99.90;;;;;;5055052;28;20225;-65
2023/09/26 12:17:52;;;;;;;16.85;16.25;;;23.20;99.90;;;;;;5064587;28;20615;-65
2023/09/26 12:20:22;;;;;;;15.75;15.25;;;23.30;99.90;;;;;;5063132;28;20227;-65
2023/09/26 12:22:49;;;;;;;16.00;15.50;;;23.50;99.90;;;;;;5074320;28;20241;-64
2023/09/26 12:25:16;;;;;;;15.70;15.15;;;23.60;99.90;;;;;;5067600;28;20252;-65
2023/09/26 12:27:44;;;;;;;15.90;15.32;;;23.80;99.90;;;;;;5065141;28;20196;-65